Time;durP1;ratioP1;P1;durP2;ratioP2;P2;SDS_P1;SDS_P2;PMS_P1;PMS_P2;Temp;Humidity;BMP_temperature;BMP_pressure;BME280_temperature;BME280_humidity;BME280_pressure;Samples;Min_cycle;Max_cycle;Signal;HPM_P1;HPM_P2
2022/03/17 00:00:11;;;;;;;1480.50;999.90;;;;;;;3.28;100.00;102058.09;5021157;28;20050;-78
2022/03/17 00:02:39;;;;;;;1486.82;999.90;;;;;;;3.21;100.00;102069.63;5019317;28;20045;-79
2022/03/17 00:05:13;;;;;;;1487.68;999.90;;;;;;;3.13;100.00;102053.63;5027239;28;20042;-77
2022/03/17 00:07:46;;;;;;;1501.85;999.90;;;;;;;3.21;100.00;102049.97;5039694;28;20044;-77
2022/03/17 00:10:19;;;;;;;1511.38;999.90;;;;;;;3.16;100.00;102026.38;5024498;28;20050;-78
2022/03/17 00:12:54;;;;;;;1513.68;999.90;;;;;;;3.18;100.00;102040.44;5039495;28;20060;-78
2022/03/17 00:15:27;;;;;;;1528.18;999.90;;;;;;;3.18;100.00;102039.63;5020811;28;20046;-77
2022/03/17 00:18:00;;;;;;;1529.72;999.90;;;;;;;3.15;100.00;102035.44;5021927;28;20049;-79
2022/03/17 00:20:29;;;;;;;1532.70;999.90;;;;;;;3.20;100.00;102035.69;5031031;28;20056;-78
2022/03/17 00:23:03;;;;;;;1539.30;999.90;;;;;;;3.19;100.00;102036.72;5024159;28;20065;-79
2022/03/17 00:25:31;;;;;;;1546.93;999.90;;;;;;;3.25;100.00;102037.78;5020108;28;20050;-78
2022/03/17 00:28:05;;;;;;;1556.70;999.90;;;;;;;3.17;100.00;102035.25;5015708;28;20061;-79
2022/03/17 00:30:35;;;;;;;1564.32;999.90;;;;;;;3.18;100.00;102031.53;5024175;28;20057;-79
2022/03/17 00:33:09;;;;;;;1574.80;999.90;;;;;;;3.26;100.00;102047.53;5023212;28;20412;-80
2022/03/17 00:35:43;;;;;;;1576.82;999.90;;;;;;;3.22;100.00;102062.41;5030843;28;20052;-77
2022/03/17 00:38:19;;;;;;;1586.18;999.90;;;;;;;3.27;100.00;102042.97;5022689;28;20050;-78
2022/03/17 00:40:52;;;;;;;1592.43;999.90;;;;;;;3.20;100.00;102034.84;5022197;28;20053;-78
2022/03/17 00:43:22;;;;;;;1597.10;999.90;;;;;;;3.28;100.00;102040.06;5022879;28;20374;-79
2022/03/17 00:45:56;;;;;;;1603.43;999.90;;;;;;;3.28;100.00;102034.69;5025216;28;20068;-78
2022/03/17 00:48:24;;;;;;;1612.85;999.90;;;;;;;3.29;100.00;102035.53;5026620;28;20069;-79
2022/03/17 00:50:52;;;;;;;1620.93;999.90;;;;;;;3.33;100.00;102034.09;5030400;28;20387;-79
2022/03/17 00:53:25;;;;;;;1628.80;999.90;;;;;;;3.30;100.00;102021.91;5024465;28;20136;-76
2022/03/17 00:55:58;;;;;;;1639.32;999.90;;;;;;;3.35;100.00;102027.50;5026195;28;20496;-77
2022/03/17 00:58:33;;;;;;;1638.72;999.90;;;;;;;3.30;100.00;102027.28;5024108;28;20072;-78
2022/03/17 01:01:02;;;;;;;1646.13;999.90;;;;;;;3.36;100.00;102033.72;5026765;28;20046;-78
2022/03/17 01:03:35;;;;;;;1652.97;999.90;;;;;;;3.32;100.00;102021.69;5022424;28;20761;-77
2022/03/17 01:06:10;;;;;;;1660.10;999.90;;;;;;;3.30;100.00;102015.66;5029467;28;20042;-79
2022/03/17 01:08:43;;;;;;;1656.93;999.90;;;;;;;3.27;100.00;102030.34;5023533;28;20049;-78
2022/03/17 01:11:16;;;;;;;1663.60;999.90;;;;;;;3.26;100.00;102028.69;5026824;28;20053;-78
2022/03/17 01:13:50;;;;;;;1662.35;999.90;;;;;;;3.25;100.00;102023.53;5024570;28;20058;-78
2022/03/17 01:16:24;;;;;;;1673.43;999.90;;;;;;;3.28;100.00;102023.13;5025950;28;20506;-78
2022/03/17 01:18:57;;;;;;;1680.72;999.90;;;;;;;3.26;100.00;102020.63;5024112;28;20064;-78
2022/03/17 01:21:30;;;;;;;1686.47;999.90;;;;;;;3.25;100.00;102015.44;5032872;28;20045;-78
2022/03/17 01:23:58;;;;;;;1686.28;999.90;;;;;;;3.23;100.00;102008.41;5022916;28;20049;-79
2022/03/17 01:26:31;;;;;;;1693.88;999.90;;;;;;;3.17;100.00;101997.59;5025833;28;20045;-77
2022/03/17 01:29:06;;;;;;;1699.15;999.90;;;;;;;3.29;100.00;102004.09;5026169;28;20509;-77
2022/03/17 01:31:39;;;;;;;1703.80;999.90;;;;;;;3.28;100.00;102013.16;5026458;28;20049;-77
2022/03/17 01:34:12;;;;;;;1711.35;999.90;;;;;;;3.27;100.00;102016.88;5017010;28;20054;-78
2022/03/17 01:36:40;;;;;;;1717.20;999.90;;;;;;;3.18;100.00;102004.63;5032527;28;20057;-79
2022/03/17 01:39:13;;;;;;;1717.35;999.90;;;;;;;3.19;100.00;102006.28;5021635;28;20037;-78
2022/03/17 01:41:46;;;;;;;1724.00;999.90;;;;;;;3.10;100.00;102005.63;5027678;28;20037;-79
2022/03/17 01:44:16;;;;;;;1733.07;999.90;;;;;;;3.15;100.00;102010.41;5026526;28;20053;-79
2022/03/17 01:49:43;;;;;;;1744.10;999.90;;;;;;;3.11;100.00;102001.91;5033326;28;20383;-78
2022/03/17 01:52:17;;;;;;;1741.90;999.90;;;;;;;3.08;100.00;102005.00;5023342;28;20041;-77
2022/03/17 01:54:46;;;;;;;1748.47;999.90;;;;;;;3.17;100.00;102003.78;5025414;28;20052;-79
2022/03/17 01:57:20;;;;;;;1757.50;999.90;;;;;;;3.11;100.00;101998.38;5018067;28;20053;-79
2022/03/17 01:59:54;;;;;;;1760.18;999.90;;;;;;;3.12;100.00;101994.66;5028310;28;20049;-78
2022/03/17 02:02:27;;;;;;;1776.95;999.90;;;;;;;3.18;100.00;102001.94;5029211;28;20049;-77
2022/03/17 02:05:03;;;;;;;1782.30;999.90;;;;;;;3.20;100.00;101983.75;5029146;28;20053;-78
2022/03/17 02:07:36;;;;;;;1789.15;999.90;;;;;;;3.18;100.00;101975.06;5023344;28;20080;-78
2022/03/17 02:10:06;;;;;;;1796.40;999.90;;;;;;;3.17;100.00;101974.19;5027654;28;20042;-79
2022/03/17 02:15:32;;;;;;;1812.40;999.90;;;;;;;3.27;100.00;101976.53;5024340;28;20049;-77
2022/03/17 02:18:07;;;;;;;1819.82;999.90;;;;;;;3.27;100.00;101970.31;5021012;28;20053;-78
2022/03/17 02:20:40;;;;;;;1824.57;999.90;;;;;;;3.29;100.00;101970.97;5023644;28;20053;-78
2022/03/17 02:26:02;;;;;;;1842.13;999.90;;;;;;;3.34;100.00;101973.88;5024723;28;20050;-76
2022/03/17 02:28:35;;;;;;;1848.97;999.90;;;;;;;3.37;100.00;101960.88;5014566;28;20053;-78
2022/03/17 02:31:08;;;;;;;1849.85;999.90;;;;;;;3.33;100.00;101954.22;5022446;28;20050;-78
2022/03/17 02:33:40;;;;;;;1860.15;999.90;;;;;;;3.36;100.00;101964.56;5020622;28;20053;-78
2022/03/17 02:36:13;;;;;;;1867.72;999.90;;;;;;;3.33;100.00;101954.22;5022321;28;20061;-79
2022/03/17 02:38:48;;;;;;;1878.13;999.90;;;;;;;3.34;100.00;101942.44;5031646;28;20056;-78
2022/03/17 02:41:22;;;;;;;1877.85;999.90;;;;;;;3.40;100.00;101938.09;5019477;28;20505;-78
2022/03/17 02:43:51;;;;;;;1886.63;999.90;;;;;;;3.35;100.00;101932.50;5030241;28;20057;-77
2022/03/17 02:46:21;;;;;;;1891.68;999.90;;;;;;;3.35;100.00;101933.31;5025710;28;20056;-77
2022/03/17 02:48:54;;;;;;;1885.65;999.90;;;;;;;3.36;100.00;101928.78;5022759;28;20049;-77
2022/03/17 02:51:27;;;;;;;1900.32;999.90;;;;;;;3.35;100.00;101917.16;5035868;28;20498;-79
2022/03/17 02:53:57;;;;;;;1914.22;999.90;;;;;;;3.40;100.00;101916.59;5022657;28;20053;-78
2022/03/17 02:56:30;;;;;;;1914.50;999.90;;;;;;;3.42;100.00;101919.06;5027671;28;20041;-78
2022/03/17 02:59:03;;;;;;;1923.88;999.90;;;;;;;3.32;100.00;101909.50;5017746;28;20050;-78
2022/03/17 03:01:31;;;;;;;1930.80;999.90;;;;;;;3.45;100.00;101922.16;5023504;28;20041;-78
2022/03/17 03:04:05;;;;;;;1933.78;999.90;;;;;;;3.38;100.00;101905.16;5034068;28;20057;-78
2022/03/17 03:06:33;;;;;;;1939.40;999.90;;;;;;;3.47;100.00;101911.22;5022264;28;20050;-78
2022/03/17 03:09:08;;;;;;;1945.85;999.90;;;;;;;3.45;100.00;101922.16;5021767;28;20125;-79
2022/03/17 03:11:41;;;;;;;1948.25;999.90;;;;;;;3.37;100.00;101901.66;5020639;28;20045;-78
2022/03/17 03:14:14;;;;;;;1954.68;999.90;;;;;;;3.37;100.00;101931.25;5019621;28;20041;-78
2022/03/17 03:16:42;;;;;;;1970.65;999.90;;;;;;;3.33;100.00;101921.94;5024765;28;20440;-79
2022/03/17 03:19:16;;;;;;;1971.85;999.90;;;;;;;3.37;100.00;101915.13;5028604;28;20092;-78
2022/03/17 03:21:49;;;;;;;1974.90;999.90;;;;;;;3.34;100.00;101906.59;5020582;28;20050;-78
2022/03/17 03:24:24;;;;;;;1982.05;999.90;;;;;;;3.33;100.00;101905.78;5027429;28;20056;-78
2022/03/17 03:26:52;;;;;;;1988.75;999.90;;;;;;;3.35;100.00;101897.50;5023368;28;20045;-79
2022/03/17 03:29:26;;;;;;;1995.97;999.90;;;;;;;3.38;100.00;101910.56;5025031;28;20057;-79
2022/03/17 03:32:02;;;;;;;1998.25;999.90;;;;;;;3.36;100.00;101900.00;5025032;28;20048;-79
2022/03/17 03:34:35;;;;;;;1999.53;999.90;;;;;;;3.39;100.00;101899.59;5016517;28;20049;-78
2022/03/17 03:37:25;;;;;;;1999.90;999.90;;;;;;;3.45;100.00;101889.88;5022675;28;20068;-79
2022/03/17 03:40:00;;;;;;;1999.90;999.90;;;;;;;3.54;100.00;101898.63;5026107;28;20524;-78
2022/03/17 03:42:33;;;;;;;1999.90;999.90;;;;;;;3.54;100.00;101899.44;5022643;28;20041;-79
2022/03/17 03:45:01;;;;;;;1999.90;999.90;;;;;;;3.47;100.00;101882.44;5020251;28;20037;-78
2022/03/17 03:47:35;;;;;;;1999.90;999.90;;;;;;;3.55;100.00;101894.91;5025098;28;20042;-79
2022/03/17 03:50:09;;;;;;;1999.90;999.90;;;;;;;3.60;100.00;101900.47;5018592;28;20054;-78
2022/03/17 03:52:37;;;;;;;1999.90;999.90;;;;;;;3.60;100.00;101892.41;5016902;28;20057;-79
2022/03/17 03:55:12;;;;;;;1999.90;999.90;;;;;;;3.54;100.00;101885.16;5023702;28;20046;-79
2022/03/17 03:57:42;;;;;;;1999.90;999.90;;;;;;;3.50;100.00;101873.94;5020385;28;20050;-78
2022/03/17 04:00:32;;;;;;;1999.90;999.90;;;;;;;3.64;100.00;101887.44;5025036;28;20076;-78
2022/03/17 04:03:03;;;;;;;1999.90;999.90;;;;;;;3.67;100.00;101882.47;5029881;28;20057;-78
2022/03/17 04:05:37;;;;;;;1999.90;999.90;;;;;;;3.67;100.00;101887.03;5026283;28;20061;-78
2022/03/17 04:08:10;;;;;;;1999.90;999.90;;;;;;;3.65;100.00;101878.34;5026405;28;20046;-77
2022/03/17 04:10:45;;;;;;;1999.90;999.90;;;;;;;3.68;100.00;101884.13;5026465;28;20041;-78
2022/03/17 04:13:13;;;;;;;1999.90;999.90;;;;;;;3.69;100.00;101880.41;5028020;28;20050;-78
2022/03/17 04:15:46;;;;;;;1999.90;999.90;;;;;;;3.79;100.00;101884.59;5019496;28;20141;-80
2022/03/17 04:18:19;;;;;;;1999.90;999.90;;;;;;;3.74;100.00;101864.50;5030508;28;20049;-79
2022/03/17 04:20:52;;;;;;;1999.90;999.90;;;;;;;3.86;100.00;101883.53;5032285;28;20073;-79
2022/03/17 04:23:25;;;;;;;1999.90;999.90;;;;;;;3.85;100.00;101867.59;5027816;28;20580;-78
2022/03/17 04:25:54;;;;;;;1999.90;999.90;;;;;;;3.94;100.00;101876.31;5026558;28;20054;-79
2022/03/17 04:28:23;;;;;;;1999.90;999.90;;;;;;;3.89;100.00;101858.06;5020378;28;20612;-78
2022/03/17 04:30:56;;;;;;;1999.90;999.90;;;;;;;4.05;100.00;101851.47;5035534;28;20052;-80
2022/03/17 04:33:24;;;;;;;1999.90;999.90;;;;;;;3.99;100.00;101838.81;5022922;28;20050;-79
2022/03/17 04:35:57;;;;;;;1999.90;999.90;;;;;;;4.21;100.00;101866.34;5034927;28;20050;-79
2022/03/17 04:38:26;;;;;;;1999.90;999.90;;;;;;;4.13;100.00;101864.72;5031432;28;20079;-79
2022/03/17 04:41:01;;;;;;;1999.90;999.90;;;;;;;4.13;100.00;101861.19;5030465;28;20394;-79
2022/03/17 04:43:34;;;;;;;1999.90;999.90;;;;;;;4.18;100.00;101861.41;5028403;28;20386;-79
2022/03/17 04:46:08;;;;;;;1999.90;999.90;;;;;;;4.20;100.00;101856.66;5033055;28;20037;-78
2022/03/17 04:48:41;;;;;;;1999.90;999.90;;;;;;;4.24;100.00;101860.56;5026236;28;20050;-79
2022/03/17 04:51:14;;;;;;;1999.90;999.90;;;;;;;4.30;100.00;101861.59;5027115;28;20388;-78
2022/03/17 04:53:48;;;;;;;1999.90;999.90;;;;;;;4.36;100.00;101866.16;5025213;28;20064;-78
2022/03/17 04:56:22;;;;;;;1999.90;999.90;;;;;;;4.35;100.00;101869.88;5024462;28;20045;-79
2022/03/17 04:58:55;;;;;;;1999.90;999.90;;;;;;;4.44;100.00;101874.03;5029819;28;20052;-79
2022/03/17 05:01:28;;;;;;;1999.90;999.90;;;;;;;4.41;100.00;101866.34;5033127;28;20053;-79
2022/03/17 05:03:57;;;;;;;1999.90;999.90;;;;;;;4.41;100.00;101871.75;5022740;28;20056;-79
2022/03/17 05:06:25;;;;;;;1999.90;999.90;;;;;;;4.41;100.00;101872.56;5019808;28;20060;-80
2022/03/17 05:08:53;;;;;;;1999.90;999.90;;;;;;;4.40;100.00;101873.59;5025112;28;20057;-77
2022/03/17 05:11:27;;;;;;;1999.90;999.90;;;;;;;4.42;100.00;101871.53;5030074;28;20056;-79
2022/03/17 05:13:55;;;;;;;1999.90;999.90;;;;;;;4.49;100.00;101862.59;5024854;28;20061;-79
2022/03/17 05:16:29;;;;;;;1999.90;999.90;;;;;;;4.51;100.00;101864.06;5021785;28;20060;-79
2022/03/17 05:19:04;;;;;;;1999.90;999.90;;;;;;;4.55;100.00;101837.50;5030565;28;20057;-77
2022/03/17 05:21:34;;;;;;;1999.90;999.90;;;;;;;4.65;100.00;101845.97;5020349;28;20049;-78
2022/03/17 05:24:02;;;;;;;1999.90;999.90;;;;;;;4.67;100.00;101837.66;5022009;28;20038;-78
2022/03/17 05:26:31;;;;;;;1999.90;999.90;;;;;;;4.63;100.00;101847.22;5025283;28;20056;-78
2022/03/17 05:29:06;;;;;;;1999.90;999.90;;;;;;;4.60;100.00;101848.50;5020107;28;20064;-79
2022/03/17 05:31:34;;;;;;;1999.90;999.90;;;;;;;4.64;100.00;101836.25;5021410;28;20092;-79
2022/03/17 05:34:07;;;;;;;1999.90;999.90;;;;;;;4.63;100.00;101839.13;5027840;28;20044;-78
2022/03/17 05:36:40;;;;;;;1999.90;999.90;;;;;;;4.68;100.00;101842.88;5025924;28;20052;-78
2022/03/17 05:39:08;;;;;;;1999.90;999.90;;;;;;;4.71;100.00;101847.84;5031991;28;20053;-79
2022/03/17 05:41:43;;;;;;;1999.90;999.90;;;;;;;4.75;100.00;101834.75;5030271;28;20371;-78
2022/03/17 05:44:16;;;;;;;1992.65;999.90;;;;;;;4.76;100.00;101841.81;5024202;28;20057;-78
2022/03/17 05:46:49;;;;;;;1981.10;999.90;;;;;;;4.82;100.00;101840.13;5028467;28;20529;-78
2022/03/17 05:49:22;;;;;;;1954.97;999.90;;;;;;;4.88;100.00;101842.78;5022039;28;20042;-78
2022/03/17 05:51:50;;;;;;;1933.82;999.90;;;;;;;4.95;100.00;101856.25;5026863;28;20054;-79
2022/03/17 05:54:18;;;;;;;1920.50;999.90;;;;;;;5.03;100.00;101852.50;5029945;28;20052;-79
2022/03/17 05:56:53;;;;;;;1900.15;999.90;;;;;;;5.08;100.00;101855.38;5023442;28;20068;-79
2022/03/17 05:59:22;;;;;;;1863.10;999.90;;;;;;;5.13;100.00;101849.34;5020839;28;20061;-78
2022/03/17 06:01:55;;;;;;;1824.88;999.90;;;;;;;5.07;100.00;101838.38;5025510;28;20057;-78
2022/03/17 06:04:28;;;;;;;1798.82;999.90;;;;;;;5.25;100.00;101847.66;5031544;28;20501;-79
2022/03/17 06:07:01;;;;;;;1770.15;999.90;;;;;;;5.27;100.00;101843.69;5027983;28;20802;-79
2022/03/17 06:09:34;;;;;;;1740.57;999.90;;;;;;;5.38;100.00;101844.84;5029178;28;20057;-78
2022/03/17 06:12:11;;;;;;;1702.18;999.90;;;;;;;5.26;100.00;101839.31;5024773;28;20053;-78
2022/03/17 06:14:44;;;;;;;1690.10;999.90;;;;;;;5.43;100.00;101839.63;5022059;28;20056;-78
2022/03/17 06:17:19;;;;;;;1651.97;999.90;;;;;;;5.40;100.00;101840.06;5026721;28;20382;-78
2022/03/17 06:19:53;;;;;;;1626.97;999.90;;;;;;;5.37;100.00;101847.78;5030835;28;20494;-78
2022/03/17 06:22:21;;;;;;;1593.10;999.90;;;;;;;5.40;100.00;101850.88;5023307;28;20060;-79
2022/03/17 06:24:54;;;;;;;1576.45;999.90;;;;;;;5.42;100.00;101853.34;5018986;28;20049;-79
2022/03/17 06:27:28;;;;;;;1547.40;999.90;;;;;;;5.40;100.00;101853.56;5027841;28;20059;-79
2022/03/17 06:30:03;;;;;;;1523.82;999.90;;;;;;;5.34;100.00;101851.72;5021487;28;20064;-78
2022/03/17 06:32:39;;;;;;;1503.85;999.90;;;;;;;5.31;100.00;101835.97;5031435;28;20065;-78
2022/03/17 06:35:17;;;;;;;1485.32;999.90;;;;;;;5.43;100.00;101844.22;5020766;28;20486;-78
2022/03/17 06:37:52;;;;;;;1470.88;999.90;;;;;;;5.37;100.00;101850.47;5035370;28;20053;-79
2022/03/17 06:40:27;;;;;;;1463.93;999.90;;;;;;;5.41;100.00;101847.13;5024644;28;20045;-78
2022/03/17 06:43:02;;;;;;;1449.25;999.90;;;;;;;5.41;100.00;101840.91;5020492;28;20049;-77
2022/03/17 06:45:31;;;;;;;1421.25;999.90;;;;;;;5.41;100.00;101835.50;5015681;28;20056;-77
2022/03/17 06:47:59;;;;;;;1411.90;999.90;;;;;;;5.36;100.00;101822.66;5019598;28;20074;-78
2022/03/17 06:50:33;;;;;;;1398.45;999.90;;;;;;;5.30;100.00;101814.59;5018250;28;20053;-78
2022/03/17 06:53:06;;;;;;;1386.47;999.90;;;;;;;5.36;100.00;101829.91;5023169;28;20050;-77
2022/03/17 06:55:39;;;;;;;1384.93;999.90;;;;;;;5.31;100.00;101814.38;5017834;28;20049;-78
2022/03/17 06:58:14;;;;;;;1386.15;999.90;;;;;;;5.36;100.00;101836.16;5015779;28;20054;-77
2022/03/17 07:00:47;;;;;;;1388.38;999.90;;;;;;;5.35;100.00;101829.09;5001294;28;20048;-78
2022/03/17 07:03:20;;;;;;;1374.40;999.90;;;;;;;5.38;100.00;101831.34;5007380;28;20060;-78
2022/03/17 07:05:54;;;;;;;1369.68;999.90;;;;;;;5.32;100.00;101815.19;5005657;28;20052;-78
2022/03/17 07:08:27;;;;;;;1370.15;999.90;;;;;;;5.41;100.00;101819.28;5008177;28;20061;-79
2022/03/17 07:11:00;;;;;;;1371.47;999.90;;;;;;;5.37;100.00;101810.81;5000271;28;20057;-78
2022/03/17 07:13:34;;;;;;;1370.03;999.90;;;;;;;5.43;100.00;101811.81;5000565;28;20057;-80
2022/03/17 07:16:03;;;;;;;1364.43;999.90;;;;;;;5.34;100.00;101810.41;5004531;28;20065;-79
2022/03/17 07:18:36;;;;;;;1360.60;999.90;;;;;;;5.44;100.00;101822.41;5005400;28;21292;-78
2022/03/17 07:21:04;;;;;;;1355.05;999.90;;;;;;;5.43;100.00;101822.63;5000039;28;20577;-79
2022/03/17 07:23:38;;;;;;;1351.20;999.90;;;;;;;5.54;100.00;101835.41;5000139;28;20049;-78
2022/03/17 07:26:12;;;;;;;1346.38;999.90;;;;;;;5.53;100.00;101841.88;5004317;28;20064;-79
2022/03/17 07:28:48;;;;;;;1344.22;999.90;;;;;;;5.56;100.00;101840.59;5010475;28;20049;-77
2022/03/17 07:31:22;;;;;;;1340.40;999.90;;;;;;;5.61;100.00;101836.19;5002619;28;20052;-79
2022/03/17 07:33:50;;;;;;;1336.05;999.90;;;;;;;5.59;100.00;101832.91;5003883;28;20129;-78
2022/03/17 07:36:23;;;;;;;1333.22;999.90;;;;;;;5.64;100.00;101839.53;5015916;28;20050;-79
2022/03/17 07:38:58;;;;;;;1326.88;999.90;;;;;;;5.72;100.00;101850.06;5006024;28;20037;-79
2022/03/17 07:41:31;;;;;;;1319.22;999.90;;;;;;;5.59;100.00;101838.31;5007584;28;20058;-78
2022/03/17 07:44:02;;;;;;;1313.65;999.90;;;;;;;5.65;100.00;101854.66;5009094;28;20064;-78
2022/03/17 07:46:55;;;;;;;1307.55;999.90;;;;;;;5.68;100.00;101846.97;5000607;28;20610;-80
2022/03/17 07:49:37;;;;;;;1301.97;999.90;;;;;;;5.77;100.00;101852.91;5004242;28;20068;-78
2022/03/17 07:52:07;;;;;;;1293.25;999.90;;;;;;;5.77;100.00;101853.75;5016938;28;20041;-76
2022/03/17 07:54:40;;;;;;;1290.88;999.90;;;;;;;5.69;100.00;101854.03;4998088;28;20062;-79
2022/03/17 07:57:15;;;;;;;1276.40;999.90;;;;;;;5.76;100.00;101864.78;5005492;28;20904;-78
2022/03/17 07:59:49;;;;;;;1274.20;999.90;;;;;;;5.80;100.00;101871.41;5001494;28;20060;-80
2022/03/17 08:02:19;;;;;;;1267.97;999.90;;;;;;;5.88;100.00;101873.00;5000354;28;20060;-78
2022/03/17 08:04:53;;;;;;;1262.78;999.90;;;;;;;5.93;100.00;101871.28;5003845;28;20052;-80
2022/03/17 08:07:23;;;;;;;1264.53;999.90;;;;;;;5.95;100.00;101874.63;4987279;28;20836;-79
2022/03/17 08:09:57;;;;;;;1258.68;999.90;;;;;;;5.95;100.00;101866.50;4990048;28;20064;-79
2022/03/17 08:12:26;;;;;;;1247.60;999.90;;;;;;;5.95;100.00;101858.41;4995947;28;20053;-78
2022/03/17 08:14:59;;;;;;;1238.32;999.90;;;;;;;6.02;100.00;101833.22;4998563;28;20060;-79
2022/03/17 08:17:32;;;;;;;1237.72;999.90;;;;;;;5.93;100.00;101848.88;4991473;28;21565;-78
2022/03/17 08:20:06;;;;;;;1226.78;999.90;;;;;;;5.98;100.00;101857.19;4995748;28;20052;-78
2022/03/17 08:22:35;;;;;;;1216.78;999.90;;;;;;;6.03;100.00;101870.00;4994430;28;20068;-79
2022/03/17 08:25:09;;;;;;;1207.75;999.90;;;;;;;5.94;100.00;101872.97;4992793;28;20058;-79
2022/03/17 08:27:44;;;;;;;1195.90;999.90;;;;;;;6.10;100.00;101865.38;4992836;28;20053;-79
2022/03/17 08:30:19;;;;;;;1194.30;999.90;;;;;;;6.08;100.00;101876.41;5005002;28;20045;-79
2022/03/17 08:32:52;;;;;;;1195.70;999.90;;;;;;;6.09;100.00;101871.81;4999266;28;20045;-79
2022/03/17 08:35:27;;;;;;;1195.72;999.90;;;;;;;6.15;100.00;101873.66;4996200;28;20053;-79
2022/03/17 08:37:57;;;;;;;1191.38;999.90;;;;;;;6.15;100.00;101870.97;4991637;28;20068;-80
2022/03/17 08:40:30;;;;;;;1171.60;999.90;;;;;;;6.20;100.00;101857.63;4996294;28;20061;-78
2022/03/17 08:43:03;;;;;;;1176.35;999.90;;;;;;;6.16;100.00;101861.81;5011130;28;20053;-79
2022/03/17 08:51:20;;;;;;;722.90;674.90;;;;;;;6.26;100.00;101872.13;5001367;28;20060;-79
2022/03/17 08:53:58;;;;;;;653.05;610.58;;;;;;;6.33;100.00;101866.66;4995142;28;20072;-79
2022/03/17 08:56:27;;;;;;;596.70;558.80;;;;;;;6.43;100.00;101869.66;5008049;28;20051;-79
2022/03/17 08:59:00;;;;;;;557.80;522.28;;;;;;;6.44;100.00;101871.34;4999297;28;20060;-80
2022/03/17 09:01:30;;;;;;;632.55;590.95;;;;;;;6.50;100.00;101877.72;4996278;28;20053;-80
2022/03/17 09:04:03;;;;;;;629.53;588.67;;;;;;;6.64;100.00;101874.66;5002344;28;20058;-80
2022/03/17 09:06:36;;;;;;;527.80;495.15;;;;;;;6.70;100.00;101867.53;5007550;28;20050;-79
2022/03/17 09:09:10;;;;;;;337.33;318.20;;;;;;;6.69;100.00;101871.28;5001785;28;20060;-81
2022/03/17 09:11:44;;;;;;;300.30;283.83;;;;;;;6.89;100.00;101879.19;5004209;28;20629;-79
2022/03/17 09:14:17;;;;;;;316.83;299.38;;;;;;;7.02;100.00;101882.81;5002822;28;20054;-77
2022/03/17 09:16:47;;;;;;;229.05;216.82;;;;;;;7.05;100.00;101871.50;5003796;28;20049;-77
2022/03/17 09:19:20;;;;;;;228.98;216.65;;;;;;;7.37;100.00;101871.31;5003936;28;20041;-80
2022/03/17 09:21:53;;;;;;;244.27;231.25;;;;;;;7.39;100.00;101880.03;4998267;28;20068;-78
2022/03/17 09:24:22;;;;;;;224.80;212.88;;;;;;;7.51;100.00;101864.66;4998660;28;20061;-78
2022/03/17 09:26:55;;;;;;;183.32;173.45;;;;;;;7.64;100.00;101882.63;5001239;28;20060;-77
2022/03/17 09:29:29;;;;;;;133.57;126.68;;;;;;;7.66;100.00;101881.34;5001465;28;20057;-79
2022/03/17 09:32:05;;;;;;;83.00;78.60;;;;;;;7.59;100.00;101882.47;5000088;28;20054;-80
2022/03/17 09:34:33;;;;;;;60.90;57.63;;;;;;;7.49;100.00;101881.13;4998464;28;20064;-79
2022/03/17 09:37:06;;;;;;;44.90;42.50;;;;;;;7.46;100.00;101886.19;5000573;28;20056;-77
2022/03/17 09:39:44;;;;;;;42.63;40.33;;;;;;;7.39;100.00;101888.16;4996888;28;20060;-78
2022/03/17 09:42:18;;;;;;;39.00;36.90;;;;;;;7.30;100.00;101904.72;4997835;28;20057;-76
2022/03/17 09:44:53;;;;;;;40.15;37.95;;;;;;;7.36;100.00;101899.44;5000617;28;20053;-78
2022/03/17 09:47:27;;;;;;;31.50;29.80;;;;;;;7.25;100.00;101899.16;5006206;28;20466;-78
2022/03/17 09:50:01;;;;;;;34.53;32.63;;;;;;;7.26;100.00;101902.69;5002598;28;20061;-79
2022/03/17 09:52:31;;;;;;;30.13;28.45;;;;;;;7.13;100.00;101914.53;5004352;28;20064;-81
2022/03/17 09:55:09;;;;;;;26.65;25.15;;;;;;;7.07;100.00;101910.84;4999285;28;20072;-78
2022/03/17 09:57:43;;;;;;;27.20;25.70;;;;;;;7.03;100.00;101912.34;5004195;28;20060;-81
2022/03/17 10:00:17;;;;;;;29.83;28.17;;;;;;;7.11;100.00;101908.50;5008431;28;20395;-80
2022/03/17 10:02:52;;;;;;;30.55;28.85;;;;;;;7.14;100.00;101908.88;5003449;28;20066;-80
2022/03/17 10:05:21;;;;;;;29.80;28.20;;;;;;;7.10;100.00;101912.28;5006992;28;20061;-79
2022/03/17 10:07:51;;;;;;;27.02;25.52;;;;;;;6.98;100.00;101906.78;5004251;28;20703;-78
2022/03/17 10:10:19;;;;;;;27.98;26.40;;;;;;;7.03;100.00;101923.16;5005117;28;20049;-77
2022/03/17 10:13:04;;;;;;;28.80;27.20;;;;;;;7.01;100.00;101932.56;5005432;28;20058;-78
2022/03/17 10:15:38;;;;;;;29.08;27.48;;;;;;;6.95;100.00;101929.69;5000931;28;20053;-80
2022/03/17 10:18:24;;;;;;;31.73;30.00;;;;;;;7.00;100.00;101933.59;5000637;28;20045;-79
2022/03/17 10:21:09;;;;;;;36.05;34.10;;;;;;;6.96;100.00;101939.47;5004324;28;20057;-77
2022/03/17 10:23:47;;;;;;;47.25;44.72;;;;;;;6.86;100.00;101939.16;5011469;28;20360;-78
2022/03/17 10:26:39;;;;;;;74.38;70.43;;;;;;;6.66;100.00;101933.94;4998740;28;20054;-79
2022/03/17 10:29:15;;;;;;;104.70;99.25;;;;;;;6.57;100.00;101948.81;5000116;28;20053;-79
2022/03/17 10:31:54;;;;;;;154.93;146.80;;;;;;;6.52;100.00;101941.38;4996536;28;20049;-80
2022/03/17 10:34:30;;;;;;;279.85;264.60;;;;;;;6.43;100.00;101948.09;5008225;28;21302;-80
2022/03/17 10:37:08;;;;;;;516.88;484.40;;;;;;;6.32;100.00;101941.50;5006727;28;20050;-81
2022/03/17 10:39:44;;;;;;;1086.13;997.67;;;;;;;6.34;100.00;101944.00;5002894;28;20061;-80
2022/03/17 10:42:19;;;;;;;1201.38;999.90;;;;;;;6.33;100.00;101950.47;5003780;28;20064;-80
2022/03/17 10:44:54;;;;;;;1229.43;999.90;;;;;;;6.40;100.00;101951.25;5006715;28;20057;-80
2022/03/17 10:47:28;;;;;;;1250.95;999.90;;;;;;;6.22;100.00;101958.22;5006865;28;20068;-81
2022/03/17 10:50:12;;;;;;;1272.55;999.90;;;;;;;6.29;100.00;101967.13;5004257;28;20056;-80
2022/03/17 10:52:47;;;;;;;1288.18;999.90;;;;;;;6.32;100.00;101965.03;5006224;28;20061;-81
2022/03/17 10:55:25;;;;;;;1300.35;999.90;;;;;;;6.22;100.00;101960.13;5008324;28;20639;-80
2022/03/17 10:58:11;;;;;;;1315.03;999.90;;;;;;;6.09;100.00;101964.56;5001555;28;20068;-80
2022/03/17 11:00:46;;;;;;;1323.65;999.90;;;;;;;6.07;100.00;101969.34;5018541;28;20064;-79
2022/03/17 11:03:21;;;;;;;1338.70;999.90;;;;;;;6.14;100.00;101974.72;4999612;28;20076;-80
2022/03/17 11:05:56;;;;;;;1342.90;999.90;;;;;;;6.16;100.00;101982.59;4999852;28;20060;-81
2022/03/17 11:08:31;;;;;;;1352.75;999.90;;;;;;;6.17;100.00;101993.19;5000246;28;20053;-80
2022/03/17 11:11:05;;;;;;;1358.80;999.90;;;;;;;6.20;100.00;102002.75;5000629;28;20057;-81
2022/03/17 11:13:39;;;;;;;1362.82;999.90;;;;;;;6.06;100.00;101986.63;4997935;28;20061;-81
2022/03/17 11:16:10;;;;;;;1368.50;999.90;;;;;;;6.17;100.00;102014.00;5006008;28;20049;-80
2022/03/17 11:18:44;;;;;;;1373.25;999.90;;;;;;;6.17;100.00;102005.88;5017820;28;20061;-81
2022/03/17 11:21:21;;;;;;;1373.30;999.90;;;;;;;6.09;100.00;102015.91;5002494;28;20469;-80
2022/03/17 11:23:58;;;;;;;1379.03;999.90;;;;;;;6.06;100.00;102007.41;5005810;28;20057;-80
2022/03/17 11:26:35;;;;;;;1379.85;999.90;;;;;;;6.17;100.00;102014.00;5005502;28;20045;-81
2022/03/17 11:29:10;;;;;;;1387.30;999.90;;;;;;;6.09;100.00;102015.06;5003471;28;20053;-80